sensor_id;sensor_type;location;lat;lon;timestamp;P1;durP1;ratioP1;P2;durP2;ratioP2
72728;SDS011;60843;52.062;4.508;2023-02-15T01:40:55;58.65;;;24.48;;
72728;SDS011;60843;52.062;4.508;2023-02-15T01:43:41;56.25;;;25.88;;
72728;SDS011;60843;52.062;4.508;2023-02-15T01:46:11;57.75;;;24.27;;
72728;SDS011;60843;52.062;4.508;2023-02-15T01:48:40;60.78;;;25.77;;
72728;SDS011;60843;52.062;4.508;2023-02-15T01:51:11;61.30;;;25.73;;
72728;SDS011;60843;52.062;4.508;2023-02-15T01:53:39;63.58;;;25.60;;
72728;SDS011;60843;52.062;4.508;2023-02-15T01:56:09;61.35;;;26.35;;
72728;SDS011;60843;52.062;4.508;2023-02-15T01:58:38;62.60;;;25.02;;
72728;SDS011;60843;52.062;4.508;2023-02-15T02:01:03;58.63;;;25.80;;
72728;SDS011;60843;52.062;4.508;2023-02-15T02:06:10;57.85;;;25.40;;
72728;SDS011;60843;52.062;4.508;2023-02-15T02:08:36;63.35;;;25.52;;
72728;SDS011;60843;52.062;4.508;2023-02-15T02:11:01;50.92;;;23.17;;
72728;SDS011;60843;52.062;4.508;2023-02-15T02:13:27;61.83;;;25.90;;
72728;SDS011;60843;52.062;4.508;2023-02-15T02:33:08;57.95;;;25.45;;
72728;SDS011;60843;52.062;4.508;2023-02-15T02:41:20;54.13;;;22.80;;
72728;SDS011;60843;52.062;4.508;2023-02-15T02:43:54;54.95;;;23.17;;
72728;SDS011;60843;52.062;4.508;2023-02-15T02:46:31;55.83;;;24.42;;
72728;SDS011;60843;52.062;4.508;2023-02-15T02:49:00;53.53;;;23.38;;
72728;SDS011;60843;52.062;4.508;2023-02-15T02:51:26;59.35;;;26.13;;
72728;SDS011;60843;52.062;4.508;2023-02-15T02:53:53;50.88;;;23.52;;
72728;SDS011;60843;52.062;4.508;2023-02-15T02:56:29;55.25;;;24.05;;
72728;SDS011;60843;52.062;4.508;2023-02-15T02:59:09;56.72;;;23.88;;
72728;SDS011;60843;52.062;4.508;2023-02-15T03:02:13;55.67;;;23.20;;
72728;SDS011;60843;52.062;4.508;2023-02-15T03:04:35;55.83;;;23.48;;
72728;SDS011;60843;52.062;4.508;2023-02-15T03:07:07;53.35;;;24.25;;
72728;SDS011;60843;52.062;4.508;2023-02-15T03:09:41;49.47;;;23.17;;
72728;SDS011;60843;52.062;4.508;2023-02-15T03:12:08;61.22;;;24.35;;
72728;SDS011;60843;52.062;4.508;2023-02-15T03:14:37;58.05;;;24.83;;
72728;SDS011;60843;52.062;4.508;2023-02-15T03:17:04;55.83;;;23.45;;
72728;SDS011;60843;52.062;4.508;2023-02-15T03:19:31;60.78;;;26.55;;
72728;SDS011;60843;52.062;4.508;2023-02-15T03:22:06;53.45;;;22.92;;
72728;SDS011;60843;52.062;4.508;2023-02-15T03:24:36;55.25;;;24.80;;
72728;SDS011;60843;52.062;4.508;2023-02-15T03:27:08;58.63;;;23.77;;
72728;SDS011;60843;52.062;4.508;2023-02-15T03:29:37;53.10;;;22.52;;
72728;SDS011;60843;52.062;4.508;2023-02-15T03:32:04;52.92;;;22.30;;
72728;SDS011;60843;52.062;4.508;2023-02-15T03:34:32;57.45;;;23.63;;
72728;SDS011;60843;52.062;4.508;2023-02-15T03:37:00;58.65;;;25.30;;
72728;SDS011;60843;52.062;4.508;2023-02-15T03:47:30;58.50;;;23.92;;
72728;SDS011;60843;52.062;4.508;2023-02-15T03:50:09;54.80;;;22.83;;
72728;SDS011;60843;52.062;4.508;2023-02-15T03:52:58;49.88;;;22.05;;
72728;SDS011;60843;52.062;4.508;2023-02-15T03:55:25;57.42;;;23.23;;
72728;SDS011;60843;52.062;4.508;2023-02-15T03:57:51;49.13;;;21.40;;
72728;SDS011;60843;52.062;4.508;2023-02-15T04:00:36;53.65;;;22.50;;
72728;SDS011;60843;52.062;4.508;2023-02-15T04:03:39;54.35;;;22.60;;
72728;SDS011;60843;52.062;4.508;2023-02-15T04:06:07;49.65;;;21.35;;
72728;SDS011;60843;52.062;4.508;2023-02-15T04:08:33;58.08;;;22.73;;
72728;SDS011;60843;52.062;4.508;2023-02-15T04:11:17;51.67;;;23.73;;
72728;SDS011;60843;52.062;4.508;2023-02-15T04:13:42;60.58;;;22.90;;
72728;SDS011;60843;52.062;4.508;2023-02-15T04:16:08;51.00;;;22.10;;
72728;SDS011;60843;52.062;4.508;2023-02-15T04:18:41;56.20;;;23.48;;
72728;SDS011;60843;52.062;4.508;2023-02-15T04:21:27;53.55;;;21.70;;
72728;SDS011;60843;52.062;4.508;2023-02-15T04:24:13;48.50;;;20.02;;
72728;SDS011;60843;52.062;4.508;2023-02-15T04:26:57;52.17;;;21.38;;
72728;SDS011;60843;52.062;4.508;2023-02-15T04:29:27;57.75;;;22.25;;
72728;SDS011;60843;52.062;4.508;2023-02-15T04:31:56;52.72;;;21.90;;
72728;SDS011;60843;52.062;4.508;2023-02-15T04:34:22;55.60;;;23.27;;
72728;SDS011;60843;52.062;4.508;2023-02-15T04:36:48;65.10;;;23.27;;
72728;SDS011;60843;52.062;4.508;2023-02-15T04:39:15;48.05;;;20.35;;
72728;SDS011;60843;52.062;4.508;2023-02-15T04:41:42;57.80;;;22.30;;
72728;SDS011;60843;52.062;4.508;2023-02-15T04:44:08;58.83;;;23.92;;
72728;SDS011;60843;52.062;4.508;2023-02-15T04:46:33;54.75;;;23.30;;
72728;SDS011;60843;52.062;4.508;2023-02-15T04:48:59;58.65;;;22.80;;
72728;SDS011;60843;52.062;4.508;2023-02-15T04:51:25;57.33;;;22.48;;
72728;SDS011;60843;52.062;4.508;2023-02-15T04:53:50;56.03;;;23.13;;
72728;SDS011;60843;52.062;4.508;2023-02-15T04:56:19;55.85;;;21.98;;
72728;SDS011;60843;52.062;4.508;2023-02-15T04:58:45;58.05;;;22.48;;
72728;SDS011;60843;52.062;4.508;2023-02-15T05:01:11;57.50;;;23.33;;
72728;SDS011;60843;52.062;4.508;2023-02-15T05:03:38;65.68;;;24.85;;
72728;SDS011;60843;52.062;4.508;2023-02-15T05:06:04;55.83;;;23.20;;
72728;SDS011;60843;52.062;4.508;2023-02-15T05:08:30;57.42;;;22.15;;
72728;SDS011;60843;52.062;4.508;2023-02-15T05:10:56;58.30;;;22.88;;
72728;SDS011;60843;52.062;4.508;2023-02-15T05:13:22;63.35;;;24.88;;
72728;SDS011;60843;52.062;4.508;2023-02-15T05:15:48;62.38;;;24.25;;
72728;SDS011;60843;52.062;4.508;2023-02-15T05:18:15;60.72;;;23.70;;
72728;SDS011;60843;52.062;4.508;2023-02-15T05:20:41;53.63;;;22.00;;
72728;SDS011;60843;52.062;4.508;2023-02-15T05:23:06;56.90;;;23.38;;
72728;SDS011;60843;52.062;4.508;2023-02-15T05:25:32;64.53;;;23.60;;
72728;SDS011;60843;52.062;4.508;2023-02-15T05:28:16;61.55;;;23.05;;
72728;SDS011;60843;52.062;4.508;2023-02-15T05:30:48;67.25;;;25.35;;
72728;SDS011;60843;52.062;4.508;2023-02-15T05:33:35;69.55;;;23.73;;
72728;SDS011;60843;52.062;4.508;2023-02-15T05:36:01;61.92;;;23.58;;
72728;SDS011;60843;52.062;4.508;2023-02-15T05:38:26;58.60;;;24.35;;
72728;SDS011;60843;52.062;4.508;2023-02-15T05:40:52;67.63;;;25.65;;
72728;SDS011;60843;52.062;4.508;2023-02-15T05:43:18;57.33;;;24.98;;
72728;SDS011;60843;52.062;4.508;2023-02-15T05:45:45;61.63;;;24.77;;
72728;SDS011;60843;52.062;4.508;2023-02-15T05:48:11;59.08;;;23.33;;
72728;SDS011;60843;52.062;4.508;2023-02-15T05:50:37;58.63;;;23.13;;
72728;SDS011;60843;52.062;4.508;2023-02-15T05:53:02;54.95;;;22.98;;
72728;SDS011;60843;52.062;4.508;2023-02-15T05:55:28;55.70;;;22.23;;
72728;SDS011;60843;52.062;4.508;2023-02-15T05:57:53;59.20;;;23.92;;
72728;SDS011;60843;52.062;4.508;2023-02-15T06:00:19;55.25;;;23.65;;
72728;SDS011;60843;52.062;4.508;2023-02-15T06:02:46;57.10;;;23.98;;
72728;SDS011;60843;52.062;4.508;2023-02-15T06:05:14;55.80;;;21.52;;
72728;SDS011;60843;52.062;4.508;2023-02-15T06:07:44;64.70;;;24.65;;
72728;SDS011;60843;52.062;4.508;2023-02-15T06:10:11;54.55;;;23.42;;
72728;SDS011;60843;52.062;4.508;2023-02-15T06:12:37;59.35;;;24.20;;
72728;SDS011;60843;52.062;4.508;2023-02-15T06:15:03;54.47;;;22.75;;
72728;SDS011;60843;52.062;4.508;2023-02-15T06:17:28;67.50;;;24.58;;
72728;SDS011;60843;52.062;4.508;2023-02-15T06:19:54;60.78;;;23.63;;
72728;SDS011;60843;52.062;4.508;2023-02-15T06:22:20;62.28;;;23.58;;
72728;SDS011;60843;52.062;4.508;2023-02-15T06:24:45;65.22;;;23.15;;
72728;SDS011;60843;52.062;4.508;2023-02-15T06:27:11;60.85;;;23.20;;
72728;SDS011;60843;52.062;4.508;2023-02-15T06:29:37;57.55;;;23.33;;
72728;SDS011;60843;52.062;4.508;2023-02-15T06:32:03;56.13;;;23.67;;
72728;SDS011;60843;52.062;4.508;2023-02-15T06:34:29;58.92;;;24.50;;
72728;SDS011;60843;52.062;4.508;2023-02-15T06:36:55;57.00;;;23.25;;
72728;SDS011;60843;52.062;4.508;2023-02-15T06:39:20;60.05;;;23.92;;
72728;SDS011;60843;52.062;4.508;2023-02-15T06:41:46;61.90;;;23.30;;
72728;SDS011;60843;52.062;4.508;2023-02-15T06:44:11;58.67;;;21.80;;
72728;SDS011;60843;52.062;4.508;2023-02-15T06:46:37;57.70;;;23.30;;
72728;SDS011;60843;52.062;4.508;2023-02-15T06:49:03;65.43;;;23.63;;
72728;SDS011;60843;52.062;4.508;2023-02-15T06:51:28;64.47;;;25.38;;
72728;SDS011;60843;52.062;4.508;2023-02-15T06:53:54;57.58;;;23.13;;
72728;SDS011;60843;52.062;4.508;2023-02-15T06:56:20;57.22;;;20.92;;
72728;SDS011;60843;52.062;4.508;2023-02-15T06:58:46;54.90;;;22.27;;
72728;SDS011;60843;52.062;4.508;2023-02-15T07:01:14;54.05;;;22.50;;
72728;SDS011;60843;52.062;4.508;2023-02-15T07:03:39;58.55;;;22.30;;
72728;SDS011;60843;52.062;4.508;2023-02-15T07:06:05;48.15;;;19.77;;
72728;SDS011;60843;52.062;4.508;2023-02-15T07:08:33;57.65;;;23.45;;
72728;SDS011;60843;52.062;4.508;2023-02-15T07:11:00;55.83;;;22.60;;
72728;SDS011;60843;52.062;4.508;2023-02-15T07:13:44;61.45;;;23.08;;
72728;SDS011;60843;52.062;4.508;2023-02-15T07:16:11;56.60;;;22.52;;
72728;SDS011;60843;52.062;4.508;2023-02-15T07:18:37;50.42;;;22.10;;
72728;SDS011;60843;52.062;4.508;2023-02-15T07:21:03;46.63;;;20.02;;
72728;SDS011;60843;52.062;4.508;2023-02-15T07:23:29;54.55;;;22.27;;
72728;SDS011;60843;52.062;4.508;2023-02-15T07:25:58;53.75;;;20.27;;
72728;SDS011;60843;52.062;4.508;2023-02-15T07:28:24;54.85;;;20.25;;
72728;SDS011;60843;52.062;4.508;2023-02-15T07:30:50;48.83;;;20.83;;
72728;SDS011;60843;52.062;4.508;2023-02-15T07:33:16;59.20;;;22.60;;
72728;SDS011;60843;52.062;4.508;2023-02-15T07:36:00;44.55;;;18.65;;
72728;SDS011;60843;52.062;4.508;2023-02-15T07:38:31;45.05;;;16.70;;
72728;SDS011;60843;52.062;4.508;2023-02-15T07:40:58;53.28;;;21.42;;
72728;SDS011;60843;52.062;4.508;2023-02-15T07:43:25;49.15;;;21.05;;
72728;SDS011;60843;52.062;4.508;2023-02-15T07:45:50;40.90;;;17.23;;
72728;SDS011;60843;52.062;4.508;2023-02-15T07:48:16;52.50;;;21.03;;
72728;SDS011;60843;52.062;4.508;2023-02-15T07:50:41;57.85;;;22.63;;
72728;SDS011;60843;52.062;4.508;2023-02-15T07:53:07;55.42;;;21.80;;
72728;SDS011;60843;52.062;4.508;2023-02-15T07:55:32;56.90;;;22.75;;
72728;SDS011;60843;52.062;4.508;2023-02-15T07:57:58;53.42;;;21.60;;
72728;SDS011;60843;52.062;4.508;2023-02-15T08:00:23;60.03;;;22.65;;
72728;SDS011;60843;52.062;4.508;2023-02-15T08:02:53;60.25;;;23.30;;
72728;SDS011;60843;52.062;4.508;2023-02-15T08:05:38;59.22;;;21.15;;
72728;SDS011;60843;52.062;4.508;2023-02-15T08:08:08;54.85;;;23.70;;
72728;SDS011;60843;52.062;4.508;2023-02-15T08:10:34;56.63;;;22.55;;
72728;SDS011;60843;52.062;4.508;2023-02-15T08:13:19;59.40;;;24.48;;
72728;SDS011;60843;52.062;4.508;2023-02-15T08:15:48;62.30;;;25.45;;
72728;SDS011;60843;52.062;4.508;2023-02-15T08:18:15;54.60;;;22.88;;
72728;SDS011;60843;52.062;4.508;2023-02-15T08:20:40;61.10;;;25.05;;
72728;SDS011;60843;52.062;4.508;2023-02-15T08:23:06;60.28;;;24.05;;
72728;SDS011;60843;52.062;4.508;2023-02-15T08:25:33;57.70;;;24.15;;
72728;SDS011;60843;52.062;4.508;2023-02-15T08:27:58;63.20;;;25.25;;
72728;SDS011;60843;52.062;4.508;2023-02-15T08:30:24;53.35;;;22.42;;
72728;SDS011;60843;52.062;4.508;2023-02-15T08:32:49;69.32;;;27.80;;
72728;SDS011;60843;52.062;4.508;2023-02-15T08:35:15;60.03;;;25.95;;
72728;SDS011;60843;52.062;4.508;2023-02-15T08:37:41;61.10;;;24.63;;
72728;SDS011;60843;52.062;4.508;2023-02-15T08:40:07;53.38;;;23.08;;
72728;SDS011;60843;52.062;4.508;2023-02-15T08:42:33;63.08;;;24.63;;
72728;SDS011;60843;52.062;4.508;2023-02-15T08:44:58;54.33;;;23.60;;
72728;SDS011;60843;52.062;4.508;2023-02-15T08:47:24;56.33;;;25.00;;
72728;SDS011;60843;52.062;4.508;2023-02-15T08:49:49;61.47;;;25.67;;
72728;SDS011;60843;52.062;4.508;2023-02-15T08:52:16;66.40;;;25.98;;
72728;SDS011;60843;52.062;4.508;2023-02-15T08:54:41;55.22;;;26.02;;
72728;SDS011;60843;52.062;4.508;2023-02-15T08:57:07;59.05;;;26.65;;
72728;SDS011;60843;52.062;4.508;2023-02-15T08:59:33;65.32;;;27.73;;
72728;SDS011;60843;52.062;4.508;2023-02-15T09:01:58;66.07;;;27.60;;
72728;SDS011;60843;52.062;4.508;2023-02-15T09:04:24;59.45;;;26.50;;
72728;SDS011;60843;52.062;4.508;2023-02-15T09:06:49;67.82;;;27.30;;
72728;SDS011;60843;52.062;4.508;2023-02-15T09:09:16;60.00;;;25.95;;
72728;SDS011;60843;52.062;4.508;2023-02-15T09:11:43;66.15;;;27.65;;
72728;SDS011;60843;52.062;4.508;2023-02-15T09:14:13;66.18;;;27.73;;
72728;SDS011;60843;52.062;4.508;2023-02-15T09:16:43;64.63;;;26.80;;
72728;SDS011;60843;52.062;4.508;2023-02-15T09:19:13;68.90;;;30.05;;
72728;SDS011;60843;52.062;4.508;2023-02-15T09:21:40;66.25;;;26.63;;
72728;SDS011;60843;52.062;4.508;2023-02-15T09:24:07;65.47;;;28.35;;
72728;SDS011;60843;52.062;4.508;2023-02-15T09:26:36;70.18;;;28.42;;
72728;SDS011;60843;52.062;4.508;2023-02-15T09:29:05;67.90;;;28.15;;
72728;SDS011;60843;52.062;4.508;2023-02-15T09:31:33;70.00;;;29.60;;
72728;SDS011;60843;52.062;4.508;2023-02-15T09:34:03;71.05;;;28.88;;
72728;SDS011;60843;52.062;4.508;2023-02-15T09:36:35;62.72;;;27.30;;
72728;SDS011;60843;52.062;4.508;2023-02-15T09:44:24;61.80;;;26.35;;
72728;SDS011;60843;52.062;4.508;2023-02-15T09:57:51;64.28;;;28.45;;
72728;SDS011;60843;52.062;4.508;2023-02-15T10:00:47;58.78;;;28.50;;
72728;SDS011;60843;52.062;4.508;2023-02-15T10:11:50;62.63;;;28.42;;
72728;SDS011;60843;52.062;4.508;2023-02-15T10:17:45;60.67;;;26.60;;
72728;SDS011;60843;52.062;4.508;2023-02-15T10:20:28;61.33;;;26.48;;
72728;SDS011;60843;52.062;4.508;2023-02-15T10:28:10;55.38;;;22.75;;
72728;SDS011;60843;52.062;4.508;2023-02-15T10:34:16;62.13;;;26.52;;
72728;SDS011;60843;52.062;4.508;2023-02-15T10:39:50;60.20;;;23.27;;
72728;SDS011;60843;52.062;4.508;2023-02-15T10:53:28;49.17;;;22.35;;
72728;SDS011;60843;52.062;4.508;2023-02-15T10:56:17;47.30;;;21.70;;
72728;SDS011;60843;52.062;4.508;2023-02-15T10:58:49;52.55;;;22.20;;
72728;SDS011;60843;52.062;4.508;2023-02-15T11:07:02;51.22;;;22.63;;
72728;SDS011;60843;52.062;4.508;2023-02-15T11:09:33;49.33;;;22.80;;
72728;SDS011;60843;52.062;4.508;2023-02-15T11:12:03;51.92;;;23.05;;
72728;SDS011;60843;52.062;4.508;2023-02-15T11:17:50;58.92;;;22.42;;
72728;SDS011;60843;52.062;4.508;2023-02-15T11:22:33;51.33;;;20.63;;
72728;SDS011;60843;52.062;4.508;2023-02-15T11:24:59;47.17;;;20.35;;
72728;SDS011;60843;52.062;4.508;2023-02-15T11:27:28;43.97;;;20.48;;
72728;SDS011;60843;52.062;4.508;2023-02-15T11:29:59;46.22;;;21.02;;
72728;SDS011;60843;52.062;4.508;2023-02-15T11:33:02;45.60;;;20.02;;
72728;SDS011;60843;52.062;4.508;2023-02-15T11:38:26;46.00;;;20.48;;
72728;SDS011;60843;52.062;4.508;2023-02-15T11:41:05;47.53;;;22.02;;
72728;SDS011;60843;52.062;4.508;2023-02-15T11:46:03;49.80;;;23.42;;
72728;SDS011;60843;52.062;4.508;2023-02-15T11:48:29;43.80;;;21.38;;
72728;SDS011;60843;52.062;4.508;2023-02-15T11:50:56;49.22;;;20.95;;
72728;SDS011;60843;52.062;4.508;2023-02-15T11:53:23;53.88;;;22.27;;
72728;SDS011;60843;52.062;4.508;2023-02-15T11:55:53;44.90;;;21.05;;
72728;SDS011;60843;52.062;4.508;2023-02-15T12:03:39;47.08;;;21.20;;
72728;SDS011;60843;52.062;4.508;2023-02-15T12:06:13;44.78;;;21.35;;
72728;SDS011;60843;52.062;4.508;2023-02-15T12:08:43;49.80;;;20.98;;
72728;SDS011;60843;52.062;4.508;2023-02-15T12:11:19;45.65;;;21.13;;
72728;SDS011;60843;52.062;4.508;2023-02-15T12:14:09;48.15;;;21.17;;
72728;SDS011;60843;52.062;4.508;2023-02-15T12:16:51;42.88;;;20.08;;
72728;SDS011;60843;52.062;4.508;2023-02-15T12:19:27;44.15;;;20.75;;
72728;SDS011;60843;52.062;4.508;2023-02-15T12:21:58;48.55;;;21.02;;
72728;SDS011;60843;52.062;4.508;2023-02-15T12:24:26;42.20;;;20.17;;
72728;SDS011;60843;52.062;4.508;2023-02-15T12:27:13;46.10;;;21.10;;
72728;SDS011;60843;52.062;4.508;2023-02-15T12:29:42;45.83;;;20.08;;
72728;SDS011;60843;52.062;4.508;2023-02-15T12:32:16;42.47;;;19.70;;
72728;SDS011;60843;52.062;4.508;2023-02-15T12:34:44;47.35;;;21.38;;
72728;SDS011;60843;52.062;4.508;2023-02-15T12:37:30;45.55;;;19.83;;
72728;SDS011;60843;52.062;4.508;2023-02-15T12:40:02;42.65;;;20.13;;
72728;SDS011;60843;52.062;4.508;2023-02-15T12:42:43;41.97;;;18.88;;
72728;SDS011;60843;52.062;4.508;2023-02-15T12:45:20;44.15;;;19.15;;
72728;SDS011;60843;52.062;4.508;2023-02-15T12:48:15;39.90;;;18.88;;
72728;SDS011;60843;52.062;4.508;2023-02-15T12:50:45;36.08;;;15.45;;
72728;SDS011;60843;52.062;4.508;2023-02-15T12:53:22;38.00;;;17.50;;
72728;SDS011;60843;52.062;4.508;2023-02-15T12:55:58;38.97;;;17.75;;
72728;SDS011;60843;52.062;4.508;2023-02-15T12:58:47;37.00;;;17.80;;
72728;SDS011;60843;52.062;4.508;2023-02-15T13:01:17;41.03;;;15.63;;
72728;SDS011;60843;52.062;4.508;2023-02-15T13:06:21;40.72;;;18.02;;
72728;SDS011;60843;52.062;4.508;2023-02-15T13:14:17;38.58;;;17.35;;
72728;SDS011;60843;52.062;4.508;2023-02-15T13:16:46;40.20;;;18.63;;
72728;SDS011;60843;52.062;4.508;2023-02-15T13:19:18;38.15;;;14.73;;
72728;SDS011;60843;52.062;4.508;2023-02-15T13:22:06;39.53;;;18.20;;
72728;SDS011;60843;52.062;4.508;2023-02-15T13:24:37;43.25;;;19.38;;
72728;SDS011;60843;52.062;4.508;2023-02-15T13:27:07;43.97;;;18.83;;
72728;SDS011;60843;52.062;4.508;2023-02-15T13:29:38;34.13;;;16.77;;
72728;SDS011;60843;52.062;4.508;2023-02-15T13:32:20;40.17;;;19.15;;
72728;SDS011;60843;52.062;4.508;2023-02-15T13:34:52;42.88;;;18.70;;
72728;SDS011;60843;52.062;4.508;2023-02-15T13:40:12;40.42;;;19.10;;
72728;SDS011;60843;52.062;4.508;2023-02-15T13:42:52;41.88;;;17.80;;
72728;SDS011;60843;52.062;4.508;2023-02-15T13:50:50;40.80;;;18.60;;
72728;SDS011;60843;52.062;4.508;2023-02-15T13:59:14;39.17;;;18.10;;
72728;SDS011;60843;52.062;4.508;2023-02-15T14:08:01;41.25;;;18.75;;
72728;SDS011;60843;52.062;4.508;2023-02-15T14:19:02;44.08;;;17.52;;
72728;SDS011;60843;52.062;4.508;2023-02-15T14:21:41;35.90;;;15.40;;
72728;SDS011;60843;52.062;4.508;2023-02-15T14:32:16;41.45;;;18.77;;
72728;SDS011;60843;52.062;4.508;2023-02-15T14:34:58;40.70;;;18.77;;
72728;SDS011;60843;52.062;4.508;2023-02-15T14:43:24;43.35;;;18.23;;
72728;SDS011;60843;52.062;4.508;2023-02-15T14:48:36;38.70;;;18.23;;
72728;SDS011;60843;52.062;4.508;2023-02-15T14:51:26;36.78;;;17.45;;
72728;SDS011;60843;52.062;4.508;2023-02-15T14:56:45;37.88;;;18.10;;
72728;SDS011;60843;52.062;4.508;2023-02-15T15:02:39;38.53;;;18.25;;
72728;SDS011;60843;52.062;4.508;2023-02-15T15:04:59;41.78;;;18.58;;
72728;SDS011;60843;52.062;4.508;2023-02-15T15:07:35;45.30;;;20.38;;
72728;SDS011;60843;52.062;4.508;2023-02-15T15:18:01;42.53;;;18.88;;
72728;SDS011;60843;52.062;4.508;2023-02-15T15:20:44;42.40;;;20.17;;
72728;SDS011;60843;52.062;4.508;2023-02-15T15:28:09;42.13;;;18.98;;
72728;SDS011;60843;52.062;4.508;2023-02-15T15:39:33;41.75;;;19.15;;
72728;SDS011;60843;52.062;4.508;2023-02-15T15:42:13;46.17;;;19.98;;
72728;SDS011;60843;52.062;4.508;2023-02-15T15:50:14;43.08;;;19.60;;
72728;SDS011;60843;52.062;4.508;2023-02-15T15:55:42;40.08;;;18.98;;
72728;SDS011;60843;52.062;4.508;2023-02-15T15:58:02;41.53;;;18.30;;
72728;SDS011;60843;52.062;4.508;2023-02-15T16:03:15;42.25;;;19.42;;
72728;SDS011;60843;52.062;4.508;2023-02-15T16:05:58;39.00;;;18.92;;
72728;SDS011;60843;52.062;4.508;2023-02-15T16:08:28;45.75;;;20.25;;
72728;SDS011;60843;52.062;4.508;2023-02-15T16:10:58;41.92;;;19.55;;
72728;SDS011;60843;52.062;4.508;2023-02-15T16:13:24;43.42;;;20.10;;
72728;SDS011;60843;52.062;4.508;2023-02-15T16:15:54;45.17;;;20.08;;
72728;SDS011;60843;52.062;4.508;2023-02-15T16:18:22;39.38;;;19.48;;
72728;SDS011;60843;52.062;4.508;2023-02-15T16:20:51;44.08;;;19.35;;
72728;SDS011;60843;52.062;4.508;2023-02-15T16:28:31;45.35;;;20.42;;
72728;SDS011;60843;52.062;4.508;2023-02-15T16:33:39;54.95;;;21.67;;
72728;SDS011;60843;52.062;4.508;2023-02-15T16:36:09;44.20;;;20.48;;
72728;SDS011;60843;52.062;4.508;2023-02-15T16:41:30;48.28;;;22.15;;
72728;SDS011;60843;52.062;4.508;2023-02-15T16:43:56;48.60;;;21.00;;
72728;SDS011;60843;52.062;4.508;2023-02-15T16:48:49;48.80;;;21.80;;
72728;SDS011;60843;52.062;4.508;2023-02-15T16:51:20;46.75;;;21.52;;
72728;SDS011;60843;52.062;4.508;2023-02-15T16:53:47;47.38;;;22.73;;
72728;SDS011;60843;52.062;4.508;2023-02-15T16:56:14;48.17;;;21.52;;
72728;SDS011;60843;52.062;4.508;2023-02-15T17:01:08;51.20;;;22.33;;
72728;SDS011;60843;52.062;4.508;2023-02-15T17:03:36;49.28;;;21.67;;
72728;SDS011;60843;52.062;4.508;2023-02-15T17:06:02;41.80;;;19.90;;
72728;SDS011;60843;52.062;4.508;2023-02-15T17:19:49;46.33;;;20.80;;
72728;SDS011;60843;52.062;4.508;2023-02-15T17:22:22;50.60;;;22.98;;
72728;SDS011;60843;52.062;4.508;2023-02-15T17:24:50;61.85;;;26.13;;
72728;SDS011;60843;52.062;4.508;2023-02-15T17:27:23;54.53;;;22.05;;
72728;SDS011;60843;52.062;4.508;2023-02-15T17:30:36;61.75;;;26.00;;
72728;SDS011;60843;52.062;4.508;2023-02-15T17:32:51;55.58;;;22.08;;
72728;SDS011;60843;52.062;4.508;2023-02-15T17:35:22;52.92;;;22.70;;
72728;SDS011;60843;52.062;4.508;2023-02-15T17:38:01;62.90;;;25.02;;
72728;SDS011;60843;52.062;4.508;2023-02-15T17:40:34;56.72;;;23.23;;
72728;SDS011;60843;52.062;4.508;2023-02-15T17:43:01;51.45;;;21.98;;
72728;SDS011;60843;52.062;4.508;2023-02-15T17:45:36;62.05;;;26.25;;
72728;SDS011;60843;52.062;4.508;2023-02-15T17:48:21;46.55;;;21.50;;
72728;SDS011;60843;52.062;4.508;2023-02-15T17:50:48;42.20;;;19.00;;
72728;SDS011;60843;52.062;4.508;2023-02-15T17:53:17;41.95;;;19.30;;
72728;SDS011;60843;52.062;4.508;2023-02-15T17:55:43;42.70;;;20.35;;
72728;SDS011;60843;52.062;4.508;2023-02-15T17:58:14;43.03;;;17.65;;
72728;SDS011;60843;52.062;4.508;2023-02-15T18:00:42;37.53;;;17.40;;
72728;SDS011;60843;52.062;4.508;2023-02-15T18:04:00;37.38;;;17.30;;
72728;SDS011;60843;52.062;4.508;2023-02-15T18:06:38;35.88;;;16.63;;
72728;SDS011;60843;52.062;4.508;2023-02-15T18:12:21;39.95;;;17.35;;
72728;SDS011;60843;52.062;4.508;2023-02-15T18:17:15;39.10;;;17.10;;
72728;SDS011;60843;52.062;4.508;2023-02-15T18:19:41;34.70;;;17.60;;
72728;SDS011;60843;52.062;4.508;2023-02-15T18:22:12;36.45;;;16.80;;
72728;SDS011;60843;52.062;4.508;2023-02-15T18:24:40;42.05;;;19.83;;
72728;SDS011;60843;52.062;4.508;2023-02-15T18:27:32;37.67;;;17.60;;
72728;SDS011;60843;52.062;4.508;2023-02-15T18:29:58;39.50;;;17.65;;
72728;SDS011;60843;52.062;4.508;2023-02-15T18:32:26;42.40;;;17.85;;
72728;SDS011;60843;52.062;4.508;2023-02-15T18:34:55;38.58;;;18.70;;
72728;SDS011;60843;52.062;4.508;2023-02-15T18:37:21;42.72;;;18.52;;
72728;SDS011;60843;52.062;4.508;2023-02-15T18:39:48;45.75;;;18.48;;
72728;SDS011;60843;52.062;4.508;2023-02-15T18:42:22;40.03;;;16.88;;
72728;SDS011;60843;52.062;4.508;2023-02-15T18:44:53;39.75;;;17.40;;
72728;SDS011;60843;52.062;4.508;2023-02-15T18:47:24;39.03;;;17.70;;
72728;SDS011;60843;52.062;4.508;2023-02-15T18:49:54;41.45;;;18.13;;
72728;SDS011;60843;52.062;4.508;2023-02-15T18:52:32;38.95;;;18.15;;
72728;SDS011;60843;52.062;4.508;2023-02-15T18:55:01;45.05;;;17.98;;
72728;SDS011;60843;52.062;4.508;2023-02-15T18:57:29;44.58;;;19.60;;
72728;SDS011;60843;52.062;4.508;2023-02-15T18:59:55;42.85;;;18.90;;
72728;SDS011;60843;52.062;4.508;2023-02-15T19:02:21;42.55;;;18.35;;
72728;SDS011;60843;52.062;4.508;2023-02-15T19:04:46;40.10;;;18.50;;
72728;SDS011;60843;52.062;4.508;2023-02-15T19:07:16;39.65;;;18.25;;
72728;SDS011;60843;52.062;4.508;2023-02-15T19:09:45;45.38;;;18.95;;
72728;SDS011;60843;52.062;4.508;2023-02-15T19:12:13;42.05;;;18.55;;
72728;SDS011;60843;52.062;4.508;2023-02-15T19:14:39;38.08;;;18.25;;
72728;SDS011;60843;52.062;4.508;2023-02-15T19:17:08;44.70;;;17.38;;
72728;SDS011;60843;52.062;4.508;2023-02-15T19:19:38;40.95;;;18.42;;
72728;SDS011;60843;52.062;4.508;2023-02-15T19:22:04;36.17;;;18.38;;
72728;SDS011;60843;52.062;4.508;2023-02-15T19:24:32;41.58;;;18.83;;
72728;SDS011;60843;52.062;4.508;2023-02-15T19:27:02;33.95;;;16.65;;
72728;SDS011;60843;52.062;4.508;2023-02-15T19:29:28;41.25;;;17.35;;
72728;SDS011;60843;52.062;4.508;2023-02-15T19:31:55;40.50;;;18.10;;
72728;SDS011;60843;52.062;4.508;2023-02-15T19:42:27;36.63;;;17.75;;
72728;SDS011;60843;52.062;4.508;2023-02-15T19:44:53;39.53;;;18.15;;
72728;SDS011;60843;52.062;4.508;2023-02-15T19:47:19;42.28;;;19.55;;
72728;SDS011;60843;52.062;4.508;2023-02-15T19:49:46;41.80;;;18.75;;
72728;SDS011;60843;52.062;4.508;2023-02-15T19:52:13;42.45;;;18.85;;
72728;SDS011;60843;52.062;4.508;2023-02-15T19:54:41;44.30;;;19.08;;
72728;SDS011;60843;52.062;4.508;2023-02-15T20:03:01;39.75;;;17.58;;
72728;SDS011;60843;52.062;4.508;2023-02-15T20:05:27;40.25;;;18.52;;
72728;SDS011;60843;52.062;4.508;2023-02-15T20:07:53;39.22;;;17.92;;
72728;SDS011;60843;52.062;4.508;2023-02-15T20:10:21;41.53;;;17.95;;
72728;SDS011;60843;52.062;4.508;2023-02-15T20:12:48;43.85;;;19.60;;
72728;SDS011;60843;52.062;4.508;2023-02-15T20:15:24;40.05;;;17.48;;
72728;SDS011;60843;52.062;4.508;2023-02-15T20:17:51;42.13;;;19.40;;
72728;SDS011;60843;52.062;4.508;2023-02-15T20:20:17;36.85;;;18.20;;
72728;SDS011;60843;52.062;4.508;2023-02-15T20:22:46;42.33;;;17.98;;
72728;SDS011;60843;52.062;4.508;2023-02-15T20:25:20;42.35;;;19.00;;